This is the latest recevied weather packets stored in our database for station/object VE6CWS-7. If no packets are shown the sender has not sent any weather packets the latest 10 day(s).
| Time | Temp. | Humidity | Pressure | Rain* | Wind** | Luminosity | Snow |
|---|---|---|---|---|---|---|---|
| 1777833055 | 20.56° C | 27% | 1008 hPa | 0 mm | - | - | - |
| 1777832159 | 20° C | 27% | 1008 hPa | 0 mm | - | - | - |
| 1777831310 | 20° C | 29% | 1008.5 hPa | 0 mm | - | - | - |
| 1777830349 | 20° C | 30% | 1008.9 hPa | 0 mm | - | - | - |
| 1777829447 | 18.89° C | 30% | 1009.2 hPa | 0 mm | - | - | - |
| 1777828545 | 18.89° C | 31% | 1009.3 hPa | 0 mm | - | - | - |
| 1777827704 | 18.89° C | 32% | 1009.3 hPa | 0 mm | - | - | - |
| 1777826750 | 17.78° C | 34% | 1009.4 hPa | 0 mm | - | - | - |
| 1777825853 | 17.78° C | 33% | 1009.7 hPa | 0 mm | - | - | - |
| 1777824946 | 16.67° C | 37% | 1009.8 hPa | 0 mm | - | - | - |
| 1777824098 | 15.56° C | 39% | 1009.9 hPa | 0 mm | - | - | - |
| 1777823164 | 15° C | 42% | 1009.8 hPa | 0 mm | - | - | - |
| 1777822239 | 13.89° C | 42% | 1010.1 hPa | 0 mm | - | - | - |
| 1777821338 | 14.44° C | 40% | 1010.1 hPa | 0 mm | - | - | - |
| 1777820405 | 12.78° C | 44% | 1010.2 hPa | 0 mm | - | - | - |
| 1777819560 | 12.22° C | 46% | 1010.1 hPa | 0 mm | - | - | - |
| 1777818716 | 10.56° C | 49% | 1010.4 hPa | 0 mm | - | - | - |
| 1777817752 | 10° C | 51% | 1010.3 hPa | 0 mm | - | - | - |
| 1777816910 | 9.44° C | 52% | 1010.4 hPa | 0 mm | - | - | - |
| 1777815953 | 8.89° C | 52% | 1010.4 hPa | 0 mm | - | - | - |
| 1777815048 | 8.33° C | 55% | 1010.4 hPa | 0 mm | - | - | - |
| 1777814147 | 7.22° C | 58% | 1010.2 hPa | 0 mm | - | - | - |
| 1777813307 | 6.67° C | 61% | 1010.3 hPa | 0 mm | - | - | - |
| 1777812347 | 6.11° C | 65% | 1010.2 hPa | 0 mm | - | - | - |
| 1777811445 | 5.56° C | 65% | 1010.1 hPa | 0 mm | - | - | - |
* Rain latest hour (hover to see other rain measurements)
** Current wind speed in m/s (hover to see current wind gust speed)